This is the latest recevied weather packets stored in our database for station/object IK2ILW-4. If no packets are shown the sender has not sent any weather packets the latest 10 day(s).
| Time | Temp. | Humidity | Pressure | Rain* | Wind** | Luminosity | Snow |
|---|---|---|---|---|---|---|---|
| 1787586468 | 19.44° C | 76% | 1021.9 hPa | 0 mm | - | 67 W/m² | - |
| 1787586163 | 19.44° C | 76% | 1021.9 hPa | 0 mm | - | 90 W/m² | - |
| 1787585859 | 19.44° C | 76% | 1021.9 hPa | 0 mm | - | 76 W/m² | - |
| 1787585567 | 19.44° C | 76% | 1021.9 hPa | 0 mm | - | 114 W/m² | - |
| 1787585255 | 19.44° C | 76% | 1022.2 hPa | 0 mm | - | 109 W/m² | - |
| 1787584966 | 19.44° C | 76% | 1022.2 hPa | 0 mm | - | 113 W/m² | - |
| 1787584656 | 19.44° C | 76% | 1022.2 hPa | 0 mm | - | 137 W/m² | - |
| 1787584369 | 19.44° C | 76% | 1022.2 hPa | 0 mm | - | 146 W/m² | - |
| 1787584063 | 20° C | 75% | 1022.2 hPa | 0 mm | - | 153 W/m² | - |
| 1787583772 | 20° C | 75% | 1022.2 hPa | 0 mm | - | 156 W/m² | - |
| 1787583464 | 20° C | 73% | 1022.3 hPa | 0 mm | - | 290 W/m² | - |
| 1787583157 | 20.56° C | 71% | 1022.3 hPa | 0 mm | - | 179 W/m² | - |
| 1787582871 | 21.11° C | 71% | 1022.3 hPa | 0 mm | - | 144 W/m² | - |
| 1787582554 | 21.67° C | 70% | 1022.1 hPa | 0 mm | - | 494 W/m² | - |
| 1787582270 | 22.22° C | 67% | 1022.1 hPa | 0 mm | - | 533 W/m² | - |
| 1787581957 | 22.78° C | 66% | 1022.1 hPa | 0 mm | - | 204 W/m² | - |
| 1787581655 | 22.78° C | 67% | 1022.2 hPa | 0 mm | - | 545 W/m² | - |
| 1787581359 | 22.22° C | 68% | 1022.2 hPa | 0 mm | - | 582 W/m² | - |
| 1787581071 | 22.22° C | 67% | 1022.2 hPa | 0 mm | - | 510 W/m² | - |
| 1787580762 | 21.67° C | 67% | 1022.2 hPa | 0 mm | - | 552 W/m² | - |
| 1787580457 | 21.67° C | 67% | 1022.2 hPa | 0 mm | - | 497 W/m² | - |
| 1787580168 | 21.67° C | 69% | 1022.2 hPa | 0 mm | - | 605 W/m² | - |
| 1787579861 | 21.67° C | 68% | 1022.6 hPa | 0 mm | - | 403 W/m² | - |
| 1787579557 | 21.11° C | 71% | 1022.6 hPa | 0 mm | - | 591 W/m² | - |
| 1787579267 | 21.11° C | 70% | 1022.6 hPa | 0 mm | - | 272 W/m² | - |
* Rain since midnight (hover to see other rain measurements)
** Current wind speed in m/s (hover to see current wind gust speed)